sensor_id;sensor_type;location;lat;lon;timestamp;P1;durP1;ratioP1;P2;durP2;ratioP2
81211;SDS011;70686;52.494;13.420;2023-10-19T00:00:32;18.35;;;10.07;;
81211;SDS011;70686;52.494;13.420;2023-10-19T00:05:32;21.08;;;9.77;;
81211;SDS011;70686;52.494;13.420;2023-10-19T00:07:59;18.60;;;10.10;;
81211;SDS011;70686;52.494;13.420;2023-10-19T00:10:33;20.80;;;9.95;;
81211;SDS011;70686;52.494;13.420;2023-10-19T00:13:00;17.95;;;9.02;;
81211;SDS011;70686;52.494;13.420;2023-10-19T00:15:36;19.65;;;10.05;;
81211;SDS011;70686;52.494;13.420;2023-10-19T00:18:15;21.52;;;9.80;;
81211;SDS011;70686;52.494;13.420;2023-10-19T00:20:41;18.55;;;10.50;;
81211;SDS011;70686;52.494;13.420;2023-10-19T00:23:29;18.52;;;9.93;;
81211;SDS011;70686;52.494;13.420;2023-10-19T00:25:57;20.52;;;9.43;;
81211;SDS011;70686;52.494;13.420;2023-10-19T00:28:30;17.65;;;9.85;;
81211;SDS011;70686;52.494;13.420;2023-10-19T00:31:00;19.10;;;10.20;;
81211;SDS011;70686;52.494;13.420;2023-10-19T00:33:32;21.33;;;9.85;;
81211;SDS011;70686;52.494;13.420;2023-10-19T00:36:04;18.13;;;9.55;;
81211;SDS011;70686;52.494;13.420;2023-10-19T00:38:36;19.38;;;9.48;;
81211;SDS011;70686;52.494;13.420;2023-10-19T00:41:09;20.95;;;9.95;;
81211;SDS011;70686;52.494;13.420;2023-10-19T00:43:42;19.50;;;10.25;;
81211;SDS011;70686;52.494;13.420;2023-10-19T00:46:12;21.45;;;10.57;;
81211;SDS011;70686;52.494;13.420;2023-10-19T00:49:02;18.75;;;9.25;;
81211;SDS011;70686;52.494;13.420;2023-10-19T00:51:33;17.95;;;9.60;;
81211;SDS011;70686;52.494;13.420;2023-10-19T00:54:35;20.45;;;10.35;;
81211;SDS011;70686;52.494;13.420;2023-10-19T00:57:24;22.83;;;10.32;;
81211;SDS011;70686;52.494;13.420;2023-10-19T01:00:01;22.17;;;10.27;;
81211;SDS011;70686;52.494;13.420;2023-10-19T01:02:39;21.17;;;10.63;;
81211;SDS011;70686;52.494;13.420;2023-10-19T01:05:10;19.73;;;10.57;;
81211;SDS011;70686;52.494;13.420;2023-10-19T01:07:47;19.52;;;10.75;;
81211;SDS011;70686;52.494;13.420;2023-10-19T01:10:22;19.63;;;10.52;;
81211;SDS011;70686;52.494;13.420;2023-10-19T01:12:53;19.70;;;9.52;;
81211;SDS011;70686;52.494;13.420;2023-10-19T01:15:25;18.77;;;10.02;;
81211;SDS011;70686;52.494;13.420;2023-10-19T01:17:57;20.20;;;10.15;;
81211;SDS011;70686;52.494;13.420;2023-10-19T01:20:27;17.88;;;10.07;;
81211;SDS011;70686;52.494;13.420;2023-10-19T01:23:15;19.40;;;10.00;;
81211;SDS011;70686;52.494;13.420;2023-10-19T01:25:51;17.50;;;9.50;;
81211;SDS011;70686;52.494;13.420;2023-10-19T01:28:27;19.98;;;10.50;;
81211;SDS011;70686;52.494;13.420;2023-10-19T01:31:14;18.45;;;10.90;;
81211;SDS011;70686;52.494;13.420;2023-10-19T01:33:53;20.05;;;9.95;;
81211;SDS011;70686;52.494;13.420;2023-10-19T01:36:28;20.55;;;10.52;;
81211;SDS011;70686;52.494;13.420;2023-10-19T01:38:59;20.98;;;10.65;;
81211;SDS011;70686;52.494;13.420;2023-10-19T01:41:34;23.05;;;10.15;;
81211;SDS011;70686;52.494;13.420;2023-10-19T01:44:00;21.17;;;10.77;;
81211;SDS011;70686;52.494;13.420;2023-10-19T01:46:29;17.83;;;8.75;;
81211;SDS011;70686;52.494;13.420;2023-10-19T01:49:03;19.50;;;9.93;;
81211;SDS011;70686;52.494;13.420;2023-10-19T01:51:30;22.27;;;10.50;;
81211;SDS011;70686;52.494;13.420;2023-10-19T01:54:09;16.85;;;9.65;;
81211;SDS011;70686;52.494;13.420;2023-10-19T01:56:36;20.25;;;10.68;;
81211;SDS011;70686;52.494;13.420;2023-10-19T01:59:07;22.23;;;11.20;;
81211;SDS011;70686;52.494;13.420;2023-10-19T02:01:34;22.20;;;10.63;;
81211;SDS011;70686;52.494;13.420;2023-10-19T02:04:12;17.27;;;9.70;;
81211;SDS011;70686;52.494;13.420;2023-10-19T02:06:47;22.88;;;10.80;;
81211;SDS011;70686;52.494;13.420;2023-10-19T02:09:16;22.00;;;11.38;;
81211;SDS011;70686;52.494;13.420;2023-10-19T02:11:57;22.17;;;11.13;;
81211;SDS011;70686;52.494;13.420;2023-10-19T02:14:27;22.90;;;10.73;;
81211;SDS011;70686;52.494;13.420;2023-10-19T02:16:56;21.08;;;10.57;;
81211;SDS011;70686;52.494;13.420;2023-10-19T02:19:27;21.10;;;10.88;;
81211;SDS011;70686;52.494;13.420;2023-10-19T02:22:01;19.63;;;10.85;;
81211;SDS011;70686;52.494;13.420;2023-10-19T02:24:37;22.42;;;10.82;;
81211;SDS011;70686;52.494;13.420;2023-10-19T02:27:04;22.15;;;11.00;;
81211;SDS011;70686;52.494;13.420;2023-10-19T02:29:38;22.13;;;11.30;;
81211;SDS011;70686;52.494;13.420;2023-10-19T02:32:15;22.17;;;11.70;;
81211;SDS011;70686;52.494;13.420;2023-10-19T02:34:47;21.98;;;10.77;;
81211;SDS011;70686;52.494;13.420;2023-10-19T02:37:12;22.73;;;11.30;;
81211;SDS011;70686;52.494;13.420;2023-10-19T02:39:39;23.92;;;11.68;;
81211;SDS011;70686;52.494;13.420;2023-10-19T02:42:13;22.35;;;10.93;;
81211;SDS011;70686;52.494;13.420;2023-10-19T02:44:43;20.15;;;10.73;;
81211;SDS011;70686;52.494;13.420;2023-10-19T02:47:09;25.08;;;12.25;;
81211;SDS011;70686;52.494;13.420;2023-10-19T02:49:38;21.50;;;10.00;;
81211;SDS011;70686;52.494;13.420;2023-10-19T02:52:04;23.02;;;11.75;;
81211;SDS011;70686;52.494;13.420;2023-10-19T02:54:30;21.92;;;11.50;;
81211;SDS011;70686;52.494;13.420;2023-10-19T02:59:48;21.17;;;10.45;;
81211;SDS011;70686;52.494;13.420;2023-10-19T03:02:14;23.38;;;11.32;;
81211;SDS011;70686;52.494;13.420;2023-10-19T03:04:43;24.50;;;11.63;;
81211;SDS011;70686;52.494;13.420;2023-10-19T03:07:10;25.17;;;12.02;;
81211;SDS011;70686;52.494;13.420;2023-10-19T03:09:40;27.02;;;11.98;;
81211;SDS011;70686;52.494;13.420;2023-10-19T03:12:19;22.88;;;11.23;;
81211;SDS011;70686;52.494;13.420;2023-10-19T03:14:51;22.88;;;11.68;;
81211;SDS011;70686;52.494;13.420;2023-10-19T03:17:17;23.55;;;11.85;;
81211;SDS011;70686;52.494;13.420;2023-10-19T03:19:43;25.17;;;11.80;;
81211;SDS011;70686;52.494;13.420;2023-10-19T03:22:09;22.98;;;11.73;;
81211;SDS011;70686;52.494;13.420;2023-10-19T03:24:36;24.08;;;11.93;;
81211;SDS011;70686;52.494;13.420;2023-10-19T03:29:41;22.40;;;11.38;;
81211;SDS011;70686;52.494;13.420;2023-10-19T03:32:11;22.55;;;11.30;;
81211;SDS011;70686;52.494;13.420;2023-10-19T03:34:37;25.23;;;12.40;;
81211;SDS011;70686;52.494;13.420;2023-10-19T03:37:03;23.00;;;11.13;;
81211;SDS011;70686;52.494;13.420;2023-10-19T03:39:37;25.67;;;11.38;;
81211;SDS011;70686;52.494;13.420;2023-10-19T03:42:05;28.40;;;12.77;;
81211;SDS011;70686;52.494;13.420;2023-10-19T03:44:34;24.02;;;12.52;;
81211;SDS011;70686;52.494;13.420;2023-10-19T03:47:05;25.70;;;12.10;;
81211;SDS011;70686;52.494;13.420;2023-10-19T03:49:36;24.58;;;11.93;;
81211;SDS011;70686;52.494;13.420;2023-10-19T03:52:04;23.90;;;11.98;;
81211;SDS011;70686;52.494;13.420;2023-10-19T03:54:36;22.42;;;11.35;;
81211;SDS011;70686;52.494;13.420;2023-10-19T03:57:25;22.40;;;12.10;;
81211;SDS011;70686;52.494;13.420;2023-10-19T04:00:00;24.75;;;12.02;;
81211;SDS011;70686;52.494;13.420;2023-10-19T04:02:28;23.92;;;12.50;;
81211;SDS011;70686;52.494;13.420;2023-10-19T04:05:00;23.25;;;12.23;;
81211;SDS011;70686;52.494;13.420;2023-10-19T04:07:28;24.27;;;13.38;;
81211;SDS011;70686;52.494;13.420;2023-10-19T04:09:56;27.20;;;13.07;;
81211;SDS011;70686;52.494;13.420;2023-10-19T04:12:25;24.80;;;12.50;;
81211;SDS011;70686;52.494;13.420;2023-10-19T04:14:54;24.45;;;11.85;;
81211;SDS011;70686;52.494;13.420;2023-10-19T04:17:21;25.85;;;12.38;;
81211;SDS011;70686;52.494;13.420;2023-10-19T04:19:49;25.65;;;12.18;;
81211;SDS011;70686;52.494;13.420;2023-10-19T04:22:17;26.75;;;12.65;;
81211;SDS011;70686;52.494;13.420;2023-10-19T04:24:50;23.88;;;12.10;;
81211;SDS011;70686;52.494;13.420;2023-10-19T04:27:16;22.95;;;11.10;;
81211;SDS011;70686;52.494;13.420;2023-10-19T04:29:46;23.63;;;12.57;;
81211;SDS011;70686;52.494;13.420;2023-10-19T04:32:14;24.73;;;13.00;;
81211;SDS011;70686;52.494;13.420;2023-10-19T04:34:48;23.33;;;11.48;;
81211;SDS011;70686;52.494;13.420;2023-10-19T04:37:14;25.77;;;12.50;;
81211;SDS011;70686;52.494;13.420;2023-10-19T04:39:43;25.80;;;13.70;;
81211;SDS011;70686;52.494;13.420;2023-10-19T04:42:13;23.83;;;12.95;;
81211;SDS011;70686;52.494;13.420;2023-10-19T04:44:39;25.33;;;10.90;;
81211;SDS011;70686;52.494;13.420;2023-10-19T04:47:05;23.30;;;12.05;;
81211;SDS011;70686;52.494;13.420;2023-10-19T04:49:31;23.70;;;12.35;;
81211;SDS011;70686;52.494;13.420;2023-10-19T04:51:57;27.40;;;13.18;;
81211;SDS011;70686;52.494;13.420;2023-10-19T04:54:22;28.95;;;13.63;;
81211;SDS011;70686;52.494;13.420;2023-10-19T04:56:48;27.65;;;13.30;;
81211;SDS011;70686;52.494;13.420;2023-10-19T04:59:17;27.20;;;12.95;;
81211;SDS011;70686;52.494;13.420;2023-10-19T05:01:43;28.52;;;14.85;;
81211;SDS011;70686;52.494;13.420;2023-10-19T05:04:08;28.92;;;12.88;;
81211;SDS011;70686;52.494;13.420;2023-10-19T05:06:34;22.85;;;12.70;;
81211;SDS011;70686;52.494;13.420;2023-10-19T05:09:00;25.85;;;12.73;;
81211;SDS011;70686;52.494;13.420;2023-10-19T05:11:28;23.45;;;12.60;;
81211;SDS011;70686;52.494;13.420;2023-10-19T05:13:54;29.90;;;14.32;;
81211;SDS011;70686;52.494;13.420;2023-10-19T05:16:20;27.90;;;12.95;;
81211;SDS011;70686;52.494;13.420;2023-10-19T05:18:46;22.00;;;11.82;;
81211;SDS011;70686;52.494;13.420;2023-10-19T05:21:11;23.63;;;12.68;;
81211;SDS011;70686;52.494;13.420;2023-10-19T05:23:37;27.73;;;14.32;;
81211;SDS011;70686;52.494;13.420;2023-10-19T05:26:04;33.47;;;13.32;;
81211;SDS011;70686;52.494;13.420;2023-10-19T05:28:32;24.95;;;12.82;;
81211;SDS011;70686;52.494;13.420;2023-10-19T05:30:58;26.98;;;13.77;;
81211;SDS011;70686;52.494;13.420;2023-10-19T05:33:24;28.85;;;12.82;;
81211;SDS011;70686;52.494;13.420;2023-10-19T05:35:52;32.10;;;13.57;;
81211;SDS011;70686;52.494;13.420;2023-10-19T05:38:18;27.58;;;12.68;;
81211;SDS011;70686;52.494;13.420;2023-10-19T05:40:53;25.17;;;13.20;;
81211;SDS011;70686;52.494;13.420;2023-10-19T05:43:22;28.50;;;14.40;;
81211;SDS011;70686;52.494;13.420;2023-10-19T05:45:53;29.70;;;14.02;;
81211;SDS011;70686;52.494;13.420;2023-10-19T05:48:21;27.60;;;13.63;;
81211;SDS011;70686;52.494;13.420;2023-10-19T05:50:50;28.75;;;13.98;;
81211;SDS011;70686;52.494;13.420;2023-10-19T05:53:16;24.30;;;13.02;;
81211;SDS011;70686;52.494;13.420;2023-10-19T05:55:46;34.85;;;15.07;;
81211;SDS011;70686;52.494;13.420;2023-10-19T05:58:12;28.13;;;14.15;;
81211;SDS011;70686;52.494;13.420;2023-10-19T06:00:38;30.58;;;14.00;;
81211;SDS011;70686;52.494;13.420;2023-10-19T06:03:07;25.13;;;13.55;;
81211;SDS011;70686;52.494;13.420;2023-10-19T06:05:35;27.20;;;13.68;;
81211;SDS011;70686;52.494;13.420;2023-10-19T06:08:05;31.83;;;16.45;;
81211;SDS011;70686;52.494;13.420;2023-10-19T06:10:38;28.52;;;14.85;;
81211;SDS011;70686;52.494;13.420;2023-10-19T06:13:18;29.60;;;15.32;;
81211;SDS011;70686;52.494;13.420;2023-10-19T06:15:59;34.35;;;15.48;;
81211;SDS011;70686;52.494;13.420;2023-10-19T06:18:25;31.20;;;15.32;;
81211;SDS011;70686;52.494;13.420;2023-10-19T06:20:51;29.70;;;14.43;;
81211;SDS011;70686;52.494;13.420;2023-10-19T06:23:20;31.02;;;15.77;;
81211;SDS011;70686;52.494;13.420;2023-10-19T06:25:46;31.27;;;15.13;;
81211;SDS011;70686;52.494;13.420;2023-10-19T06:28:12;32.30;;;15.18;;
81211;SDS011;70686;52.494;13.420;2023-10-19T06:30:38;28.63;;;14.52;;
81211;SDS011;70686;52.494;13.420;2023-10-19T06:33:05;31.80;;;15.13;;
81211;SDS011;70686;52.494;13.420;2023-10-19T06:35:31;29.88;;;13.70;;
81211;SDS011;70686;52.494;13.420;2023-10-19T06:37:59;30.05;;;14.73;;
81211;SDS011;70686;52.494;13.420;2023-10-19T06:40:26;33.50;;;15.15;;
81211;SDS011;70686;52.494;13.420;2023-10-19T06:42:55;28.58;;;14.35;;
81211;SDS011;70686;52.494;13.420;2023-10-19T06:45:22;28.20;;;14.15;;
81211;SDS011;70686;52.494;13.420;2023-10-19T06:47:53;36.80;;;15.85;;
81211;SDS011;70686;52.494;13.420;2023-10-19T06:50:20;32.17;;;14.88;;
81211;SDS011;70686;52.494;13.420;2023-10-19T06:52:50;27.33;;;13.77;;
81211;SDS011;70686;52.494;13.420;2023-10-19T06:55:17;27.10;;;13.55;;
81211;SDS011;70686;52.494;13.420;2023-10-19T06:57:47;29.60;;;14.10;;
81211;SDS011;70686;52.494;13.420;2023-10-19T07:00:16;28.33;;;14.48;;
81211;SDS011;70686;52.494;13.420;2023-10-19T07:02:47;29.52;;;15.40;;
81211;SDS011;70686;52.494;13.420;2023-10-19T07:05:17;29.00;;;15.18;;
81211;SDS011;70686;52.494;13.420;2023-10-19T07:07:47;29.55;;;14.45;;
81211;SDS011;70686;52.494;13.420;2023-10-19T07:10:19;31.27;;;14.60;;
81211;SDS011;70686;52.494;13.420;2023-10-19T07:12:46;30.70;;;15.43;;
81211;SDS011;70686;52.494;13.420;2023-10-19T07:15:13;30.33;;;15.18;;
81211;SDS011;70686;52.494;13.420;2023-10-19T07:17:57;27.88;;;14.18;;
81211;SDS011;70686;52.494;13.420;2023-10-19T07:20:23;29.83;;;14.60;;
81211;SDS011;70686;52.494;13.420;2023-10-19T07:22:54;29.85;;;15.43;;
81211;SDS011;70686;52.494;13.420;2023-10-19T07:25:21;28.55;;;15.15;;
81211;SDS011;70686;52.494;13.420;2023-10-19T07:27:48;29.75;;;13.90;;
81211;SDS011;70686;52.494;13.420;2023-10-19T07:30:17;27.20;;;13.80;;
81211;SDS011;70686;52.494;13.420;2023-10-19T07:32:53;29.17;;;14.85;;
81211;SDS011;70686;52.494;13.420;2023-10-19T07:35:24;24.67;;;13.63;;
81211;SDS011;70686;52.494;13.420;2023-10-19T07:37:56;26.25;;;13.70;;
81211;SDS011;70686;52.494;13.420;2023-10-19T07:40:21;28.10;;;13.80;;
81211;SDS011;70686;52.494;13.420;2023-10-19T07:42:49;26.35;;;13.85;;
81211;SDS011;70686;52.494;13.420;2023-10-19T07:45:17;30.05;;;14.23;;
81211;SDS011;70686;52.494;13.420;2023-10-19T07:47:43;24.45;;;13.63;;
81211;SDS011;70686;52.494;13.420;2023-10-19T07:50:13;29.27;;;14.68;;
81211;SDS011;70686;52.494;13.420;2023-10-19T07:52:46;25.20;;;13.50;;
81211;SDS011;70686;52.494;13.420;2023-10-19T07:55:14;29.23;;;14.82;;
81211;SDS011;70686;52.494;13.420;2023-10-19T07:57:41;29.17;;;14.45;;
81211;SDS011;70686;52.494;13.420;2023-10-19T08:00:07;29.55;;;14.27;;
81211;SDS011;70686;52.494;13.420;2023-10-19T08:02:35;28.25;;;14.25;;
81211;SDS011;70686;52.494;13.420;2023-10-19T08:05:03;26.55;;;13.55;;
81211;SDS011;70686;52.494;13.420;2023-10-19T08:07:31;27.63;;;14.10;;
81211;SDS011;70686;52.494;13.420;2023-10-19T08:09:59;31.88;;;13.63;;
81211;SDS011;70686;52.494;13.420;2023-10-19T08:12:25;27.70;;;13.63;;
81211;SDS011;70686;52.494;13.420;2023-10-19T08:14:52;27.55;;;13.52;;
81211;SDS011;70686;52.494;13.420;2023-10-19T08:17:20;28.17;;;14.93;;
81211;SDS011;70686;52.494;13.420;2023-10-19T08:19:46;28.23;;;13.90;;
81211;SDS011;70686;52.494;13.420;2023-10-19T08:22:12;26.70;;;14.63;;
81211;SDS011;70686;52.494;13.420;2023-10-19T08:24:40;26.85;;;13.73;;
81211;SDS011;70686;52.494;13.420;2023-10-19T08:27:08;30.08;;;14.23;;
81211;SDS011;70686;52.494;13.420;2023-10-19T08:29:39;28.83;;;14.50;;
81211;SDS011;70686;52.494;13.420;2023-10-19T08:32:04;28.35;;;13.80;;
81211;SDS011;70686;52.494;13.420;2023-10-19T08:34:36;25.90;;;12.68;;
81211;SDS011;70686;52.494;13.420;2023-10-19T08:37:03;26.17;;;13.57;;
81211;SDS011;70686;52.494;13.420;2023-10-19T08:39:32;27.05;;;14.30;;
81211;SDS011;70686;52.494;13.420;2023-10-19T08:42:04;26.23;;;13.30;;
81211;SDS011;70686;52.494;13.420;2023-10-19T08:44:34;27.25;;;14.07;;
81211;SDS011;70686;52.494;13.420;2023-10-19T08:47:00;29.70;;;13.68;;
81211;SDS011;70686;52.494;13.420;2023-10-19T08:49:26;24.65;;;13.27;;
81211;SDS011;70686;52.494;13.420;2023-10-19T08:51:53;30.50;;;13.73;;
81211;SDS011;70686;52.494;13.420;2023-10-19T08:54:20;25.98;;;13.85;;
81211;SDS011;70686;52.494;13.420;2023-10-19T08:56:46;24.73;;;13.90;;
81211;SDS011;70686;52.494;13.420;2023-10-19T08:59:12;24.90;;;13.82;;
81211;SDS011;70686;52.494;13.420;2023-10-19T09:01:40;24.58;;;13.98;;
81211;SDS011;70686;52.494;13.420;2023-10-19T09:04:12;26.35;;;13.75;;
81211;SDS011;70686;52.494;13.420;2023-10-19T09:06:39;26.25;;;13.73;;
81211;SDS011;70686;52.494;13.420;2023-10-19T09:09:12;27.88;;;13.27;;
81211;SDS011;70686;52.494;13.420;2023-10-19T09:11:50;24.83;;;13.30;;
81211;SDS011;70686;52.494;13.420;2023-10-19T09:14:36;25.17;;;13.52;;
81211;SDS011;70686;52.494;13.420;2023-10-19T09:17:06;25.83;;;13.40;;
81211;SDS011;70686;52.494;13.420;2023-10-19T09:22:03;22.60;;;12.90;;
81211;SDS011;70686;52.494;13.420;2023-10-19T09:24:34;28.70;;;14.50;;
81211;SDS011;70686;52.494;13.420;2023-10-19T09:27:02;28.35;;;14.93;;
81211;SDS011;70686;52.494;13.420;2023-10-19T09:29:29;24.92;;;13.20;;
81211;SDS011;70686;52.494;13.420;2023-10-19T09:31:57;29.50;;;14.15;;
81211;SDS011;70686;52.494;13.420;2023-10-19T09:34:46;29.10;;;14.15;;
81211;SDS011;70686;52.494;13.420;2023-10-19T09:37:33;23.50;;;12.32;;
81211;SDS011;70686;52.494;13.420;2023-10-19T09:40:01;28.20;;;13.57;;
81211;SDS011;70686;52.494;13.420;2023-10-19T09:42:27;27.88;;;14.63;;
81211;SDS011;70686;52.494;13.420;2023-10-19T09:44:58;29.92;;;13.93;;
81211;SDS011;70686;52.494;13.420;2023-10-19T09:47:34;27.38;;;14.02;;
81211;SDS011;70686;52.494;13.420;2023-10-19T09:50:06;27.17;;;14.02;;
81211;SDS011;70686;52.494;13.420;2023-10-19T09:52:36;28.27;;;13.85;;
81211;SDS011;70686;52.494;13.420;2023-10-19T09:55:17;25.92;;;13.50;;
81211;SDS011;70686;52.494;13.420;2023-10-19T09:57:57;27.38;;;13.77;;
81211;SDS011;70686;52.494;13.420;2023-10-19T10:00:28;25.85;;;14.07;;
81211;SDS011;70686;52.494;13.420;2023-10-19T10:02:56;25.98;;;14.38;;
81211;SDS011;70686;52.494;13.420;2023-10-19T10:10:47;25.95;;;14.45;;
81211;SDS011;70686;52.494;13.420;2023-10-19T10:15:59;23.90;;;12.90;;
81211;SDS011;70686;52.494;13.420;2023-10-19T10:18:29;27.40;;;14.45;;
81211;SDS011;70686;52.494;13.420;2023-10-19T10:21:08;24.60;;;13.55;;
81211;SDS011;70686;52.494;13.420;2023-10-19T10:29:59;22.88;;;13.15;;
81211;SDS011;70686;52.494;13.420;2023-10-19T10:38:07;32.15;;;14.82;;
81211;SDS011;70686;52.494;13.420;2023-10-19T10:40:50;32.60;;;15.60;;
81211;SDS011;70686;52.494;13.420;2023-10-19T10:43:17;28.20;;;14.65;;
81211;SDS011;70686;52.494;13.420;2023-10-19T10:45:43;32.42;;;15.98;;
81211;SDS011;70686;52.494;13.420;2023-10-19T10:48:18;26.88;;;14.77;;
81211;SDS011;70686;52.494;13.420;2023-10-19T10:50:45;28.20;;;14.68;;
81211;SDS011;70686;52.494;13.420;2023-10-19T10:53:12;23.65;;;13.63;;
81211;SDS011;70686;52.494;13.420;2023-10-19T10:55:40;26.40;;;15.07;;
81211;SDS011;70686;52.494;13.420;2023-10-19T10:58:06;28.92;;;15.95;;
81211;SDS011;70686;52.494;13.420;2023-10-19T11:00:33;29.58;;;15.13;;
81211;SDS011;70686;52.494;13.420;2023-10-19T11:03:07;30.45;;;16.30;;
81211;SDS011;70686;52.494;13.420;2023-10-19T11:05:35;29.85;;;15.90;;
81211;SDS011;70686;52.494;13.420;2023-10-19T11:08:18;31.27;;;15.70;;
81211;SDS011;70686;52.494;13.420;2023-10-19T11:10:49;26.75;;;14.10;;
81211;SDS011;70686;52.494;13.420;2023-10-19T11:13:23;30.23;;;15.05;;
81211;SDS011;70686;52.494;13.420;2023-10-19T11:15:58;34.53;;;16.23;;
81211;SDS011;70686;52.494;13.420;2023-10-19T11:18:39;27.50;;;15.45;;
81211;SDS011;70686;52.494;13.420;2023-10-19T11:21:11;27.52;;;15.00;;
81211;SDS011;70686;52.494;13.420;2023-10-19T11:26:08;31.35;;;15.80;;
81211;SDS011;70686;52.494;13.420;2023-10-19T11:28:41;31.70;;;15.93;;
81211;SDS011;70686;52.494;13.420;2023-10-19T11:33:48;28.55;;;15.30;;
81211;SDS011;70686;52.494;13.420;2023-10-19T11:36:16;23.58;;;13.40;;
81211;SDS011;70686;52.494;13.420;2023-10-19T11:38:43;26.50;;;14.63;;
81211;SDS011;70686;52.494;13.420;2023-10-19T11:41:10;25.42;;;13.98;;
81211;SDS011;70686;52.494;13.420;2023-10-19T11:43:38;27.67;;;15.55;;
81211;SDS011;70686;52.494;13.420;2023-10-19T11:46:08;31.48;;;14.55;;
81211;SDS011;70686;52.494;13.420;2023-10-19T11:48:35;28.05;;;15.43;;
81211;SDS011;70686;52.494;13.420;2023-10-19T11:51:04;31.05;;;15.27;;
81211;SDS011;70686;52.494;13.420;2023-10-19T11:53:37;29.95;;;16.35;;
81211;SDS011;70686;52.494;13.420;2023-10-19T11:56:04;32.55;;;16.02;;
81211;SDS011;70686;52.494;13.420;2023-10-19T11:58:33;32.17;;;16.88;;
81211;SDS011;70686;52.494;13.420;2023-10-19T12:01:00;33.63;;;17.27;;
81211;SDS011;70686;52.494;13.420;2023-10-19T12:03:50;27.77;;;15.48;;
81211;SDS011;70686;52.494;13.420;2023-10-19T12:06:16;31.08;;;16.48;;
81211;SDS011;70686;52.494;13.420;2023-10-19T12:09:06;30.83;;;16.10;;
81211;SDS011;70686;52.494;13.420;2023-10-19T12:11:43;31.70;;;16.90;;
81211;SDS011;70686;52.494;13.420;2023-10-19T12:14:11;32.53;;;18.13;;
81211;SDS011;70686;52.494;13.420;2023-10-19T12:16:40;31.85;;;17.02;;
81211;SDS011;70686;52.494;13.420;2023-10-19T12:19:06;32.25;;;17.48;;
81211;SDS011;70686;52.494;13.420;2023-10-19T12:21:33;33.97;;;16.25;;
81211;SDS011;70686;52.494;13.420;2023-10-19T12:24:03;34.45;;;18.05;;
81211;SDS011;70686;52.494;13.420;2023-10-19T12:26:30;35.40;;;18.17;;
81211;SDS011;70686;52.494;13.420;2023-10-19T12:28:56;27.55;;;16.38;;
81211;SDS011;70686;52.494;13.420;2023-10-19T12:31:23;31.42;;;17.38;;
81211;SDS011;70686;52.494;13.420;2023-10-19T12:33:51;34.50;;;17.48;;
81211;SDS011;70686;52.494;13.420;2023-10-19T12:36:18;32.85;;;16.50;;
81211;SDS011;70686;52.494;13.420;2023-10-19T12:38:53;40.35;;;18.15;;
81211;SDS011;70686;52.494;13.420;2023-10-19T12:41:22;31.02;;;16.05;;
81211;SDS011;70686;52.494;13.420;2023-10-19T12:43:49;34.63;;;17.92;;
81211;SDS011;70686;52.494;13.420;2023-10-19T12:46:33;35.00;;;18.05;;
81211;SDS011;70686;52.494;13.420;2023-10-19T12:49:04;35.60;;;17.98;;
81211;SDS011;70686;52.494;13.420;2023-10-19T12:51:33;29.80;;;16.83;;
81211;SDS011;70686;52.494;13.420;2023-10-19T12:54:00;33.42;;;17.90;;
81211;SDS011;70686;52.494;13.420;2023-10-19T12:56:28;37.22;;;19.25;;
81211;SDS011;70686;52.494;13.420;2023-10-19T12:58:58;34.28;;;17.77;;
81211;SDS011;70686;52.494;13.420;2023-10-19T13:01:24;35.33;;;17.80;;
81211;SDS011;70686;52.494;13.420;2023-10-19T13:03:53;36.63;;;19.90;;
81211;SDS011;70686;52.494;13.420;2023-10-19T13:06:19;37.75;;;19.90;;
81211;SDS011;70686;52.494;13.420;2023-10-19T13:08:45;36.00;;;18.20;;
81211;SDS011;70686;52.494;13.420;2023-10-19T13:11:12;32.70;;;17.63;;
81211;SDS011;70686;52.494;13.420;2023-10-19T13:13:40;32.20;;;17.38;;
81211;SDS011;70686;52.494;13.420;2023-10-19T13:16:07;36.28;;;17.25;;
81211;SDS011;70686;52.494;13.420;2023-10-19T13:18:36;35.30;;;16.65;;
81211;SDS011;70686;52.494;13.420;2023-10-19T13:21:05;38.47;;;18.10;;
81211;SDS011;70686;52.494;13.420;2023-10-19T13:23:34;36.80;;;18.88;;
81211;SDS011;70686;52.494;13.420;2023-10-19T13:26:03;34.00;;;18.02;;
81211;SDS011;70686;52.494;13.420;2023-10-19T13:28:32;37.28;;;18.65;;
81211;SDS011;70686;52.494;13.420;2023-10-19T13:30:58;36.90;;;19.13;;
81211;SDS011;70686;52.494;13.420;2023-10-19T13:33:24;34.65;;;18.52;;
81211;SDS011;70686;52.494;13.420;2023-10-19T13:35:51;37.13;;;18.38;;
81211;SDS011;70686;52.494;13.420;2023-10-19T13:38:20;33.42;;;17.85;;
81211;SDS011;70686;52.494;13.420;2023-10-19T13:40:50;31.77;;;16.93;;
81211;SDS011;70686;52.494;13.420;2023-10-19T13:43:19;41.10;;;18.08;;
81211;SDS011;70686;52.494;13.420;2023-10-19T13:45:46;38.35;;;20.00;;
81211;SDS011;70686;52.494;13.420;2023-10-19T13:48:13;40.83;;;18.77;;
81211;SDS011;70686;52.494;13.420;2023-10-19T13:50:49;37.78;;;18.42;;
81211;SDS011;70686;52.494;13.420;2023-10-19T13:53:18;38.92;;;18.75;;
81211;SDS011;70686;52.494;13.420;2023-10-19T13:55:44;35.80;;;18.23;;
81211;SDS011;70686;52.494;13.420;2023-10-19T13:58:10;37.03;;;19.35;;
81211;SDS011;70686;52.494;13.420;2023-10-19T14:00:41;36.92;;;18.15;;
81211;SDS011;70686;52.494;13.420;2023-10-19T14:03:11;34.13;;;18.52;;
81211;SDS011;70686;52.494;13.420;2023-10-19T14:05:39;34.83;;;18.10;;
81211;SDS011;70686;52.494;13.420;2023-10-19T14:08:13;36.50;;;19.48;;
81211;SDS011;70686;52.494;13.420;2023-10-19T14:10:41;39.80;;;20.08;;
81211;SDS011;70686;52.494;13.420;2023-10-19T14:13:08;37.03;;;19.65;;
81211;SDS011;70686;52.494;13.420;2023-10-19T14:15:36;38.08;;;20.10;;
81211;SDS011;70686;52.494;13.420;2023-10-19T14:18:04;42.45;;;20.30;;
81211;SDS011;70686;52.494;13.420;2023-10-19T14:20:30;41.72;;;21.73;;
81211;SDS011;70686;52.494;13.420;2023-10-19T14:22:59;42.13;;;21.65;;
81211;SDS011;70686;52.494;13.420;2023-10-19T14:25:26;43.08;;;20.85;;
81211;SDS011;70686;52.494;13.420;2023-10-19T14:27:54;42.47;;;20.70;;
81211;SDS011;70686;52.494;13.420;2023-10-19T14:30:27;36.75;;;18.88;;
81211;SDS011;70686;52.494;13.420;2023-10-19T14:32:53;38.75;;;19.65;;
81211;SDS011;70686;52.494;13.420;2023-10-19T14:35:20;31.15;;;18.02;;
81211;SDS011;70686;52.494;13.420;2023-10-19T14:37:49;37.20;;;19.60;;
81211;SDS011;70686;52.494;13.420;2023-10-19T14:40:24;38.92;;;19.65;;
81211;SDS011;70686;52.494;13.420;2023-10-19T14:42:54;41.90;;;20.10;;
81211;SDS011;70686;52.494;13.420;2023-10-19T14:45:24;38.05;;;19.42;;
81211;SDS011;70686;52.494;13.420;2023-10-19T14:47:51;36.10;;;17.92;;
81211;SDS011;70686;52.494;13.420;2023-10-19T14:50:23;38.10;;;19.35;;
81211;SDS011;70686;52.494;13.420;2023-10-19T14:52:50;38.15;;;19.70;;
81211;SDS011;70686;52.494;13.420;2023-10-19T14:55:18;42.90;;;19.30;;
81211;SDS011;70686;52.494;13.420;2023-10-19T14:57:44;43.63;;;21.85;;
81211;SDS011;70686;52.494;13.420;2023-10-19T15:00:17;40.80;;;21.35;;